Terminal Aerodrome Forecast
Issued by NWS Wilmington, OH

Current Version | Previous Version | Graphics & Text | Print | Product List | Glossary Off
Versions: 1 2 3 4 5 6 7 8 9 10 11 12 13 14 15 16 17 18 19 20 21 22 23 24 25 26 27 28 29

000
FTUS41 KILN 300200 AAA
TAFCVG
TAF AMD
KCVG 300237Z 3003/0106 24005KT P6SM VCSH BKN070
      TEMPO 3004/3008 4SM BR
     FM300800 25005KT 5SM BR BKN025
     FM301300 23010KT P6SM SCT025 BKN035
     FM301800 26012G23KT P6SM VCSH BKN040=

USA.gov is the U.S. government's official web portal to all federal, state and local government web resources and services.